Hayward, Wisconsin
Current Conditions -  °F | °C
As of 9:06 AM on Monday 24 Nov 2014 (Local Time) from KHYR Reporting Station
Light Snow Light Snow  
Wind Chill: 23°   Ceiling: 1100
Heat Index: 31°   Visibility: 1.7mi
Dew Point: 29°   Wind: 9mph
Humidity: 92%   Direction: 300°WNW
Pressure: 29.23"   Gusts: NA
Location:  46.01°N, 91.48°W
Report Text: KHYR 241506Z AUTO 30008KT 260V320 1 3/4SM -SN BR OVC011 M01/M02 A2923 RMK AO2 CIG 007V014 P0000 T10061017
Loading
Personal Weather Stations






























Interactive Weather Map New forecast layout! Learn more

10-Day Weather Forecast

Advertisements
Track Severe Weather on mobile